sensor_id;sensor_type;location;lat;lon;timestamp;P1;durP1;ratioP1;P2;durP2;ratioP2
71771;SDS011;59606;52.138;5.424;2023-09-08T00:02:27;10.73;;;6.10;;
71771;SDS011;59606;52.138;5.424;2023-09-08T00:04:54;11.43;;;6.28;;
71771;SDS011;59606;52.138;5.424;2023-09-08T00:07:21;9.77;;;6.38;;
71771;SDS011;59606;52.138;5.424;2023-09-08T00:09:48;12.17;;;6.90;;
71771;SDS011;59606;52.138;5.424;2023-09-08T00:12:14;11.30;;;7.03;;
71771;SDS011;59606;52.138;5.424;2023-09-08T00:14:41;9.90;;;6.22;;
71771;SDS011;59606;52.138;5.424;2023-09-08T00:17:08;11.57;;;6.57;;
71771;SDS011;59606;52.138;5.424;2023-09-08T00:19:35;9.10;;;6.07;;
71771;SDS011;59606;52.138;5.424;2023-09-08T00:22:02;11.50;;;7.03;;
71771;SDS011;59606;52.138;5.424;2023-09-08T00:24:32;10.48;;;6.97;;
71771;SDS011;59606;52.138;5.424;2023-09-08T00:26:59;11.38;;;7.85;;
71771;SDS011;59606;52.138;5.424;2023-09-08T00:29:26;10.90;;;6.70;;
71771;SDS011;59606;52.138;5.424;2023-09-08T00:31:52;10.15;;;6.95;;
71771;SDS011;59606;52.138;5.424;2023-09-08T00:34:19;11.30;;;6.93;;
71771;SDS011;59606;52.138;5.424;2023-09-08T00:36:46;13.93;;;6.82;;
71771;SDS011;59606;52.138;5.424;2023-09-08T00:39:12;9.75;;;6.63;;
71771;SDS011;59606;52.138;5.424;2023-09-08T00:41:39;10.85;;;6.95;;
71771;SDS011;59606;52.138;5.424;2023-09-08T00:44:05;13.15;;;7.15;;
71771;SDS011;59606;52.138;5.424;2023-09-08T00:46:32;10.73;;;7.17;;
71771;SDS011;59606;52.138;5.424;2023-09-08T00:48:59;13.80;;;8.27;;
71771;SDS011;59606;52.138;5.424;2023-09-08T00:51:26;12.20;;;8.13;;
71771;SDS011;59606;52.138;5.424;2023-09-08T00:53:53;12.40;;;7.78;;
71771;SDS011;59606;52.138;5.424;2023-09-08T00:56:20;12.23;;;7.82;;
71771;SDS011;59606;52.138;5.424;2023-09-08T00:58:46;11.50;;;7.83;;
71771;SDS011;59606;52.138;5.424;2023-09-08T01:01:13;12.90;;;7.43;;
71771;SDS011;59606;52.138;5.424;2023-09-08T01:03:40;14.63;;;8.25;;
71771;SDS011;59606;52.138;5.424;2023-09-08T01:06:07;11.15;;;6.88;;
71771;SDS011;59606;52.138;5.424;2023-09-08T01:08:34;11.35;;;7.28;;
71771;SDS011;59606;52.138;5.424;2023-09-08T01:11:01;11.73;;;7.60;;
71771;SDS011;59606;52.138;5.424;2023-09-08T01:13:28;11.93;;;7.80;;
71771;SDS011;59606;52.138;5.424;2023-09-08T01:15:54;14.65;;;7.47;;
71771;SDS011;59606;52.138;5.424;2023-09-08T01:18:21;16.45;;;7.95;;
71771;SDS011;59606;52.138;5.424;2023-09-08T01:26:46;12.93;;;8.10;;
71771;SDS011;59606;52.138;5.424;2023-09-08T01:29:14;13.13;;;7.93;;
71771;SDS011;59606;52.138;5.424;2023-09-08T01:31:43;14.63;;;8.05;;
71771;SDS011;59606;52.138;5.424;2023-09-08T01:34:11;12.52;;;7.88;;
71771;SDS011;59606;52.138;5.424;2023-09-08T01:36:38;13.50;;;8.30;;
71771;SDS011;59606;52.138;5.424;2023-09-08T01:39:04;12.40;;;8.60;;
71771;SDS011;59606;52.138;5.424;2023-09-08T01:41:31;14.45;;;8.15;;
71771;SDS011;59606;52.138;5.424;2023-09-08T01:43:59;11.50;;;8.20;;
71771;SDS011;59606;52.138;5.424;2023-09-08T01:46:26;16.42;;;8.80;;
71771;SDS011;59606;52.138;5.424;2023-09-08T01:48:52;13.83;;;7.90;;
71771;SDS011;59606;52.138;5.424;2023-09-08T01:51:19;14.10;;;8.32;;
71771;SDS011;59606;52.138;5.424;2023-09-08T01:53:45;11.90;;;8.15;;
71771;SDS011;59606;52.138;5.424;2023-09-08T01:56:12;13.23;;;7.78;;
71771;SDS011;59606;52.138;5.424;2023-09-08T01:58:38;14.95;;;8.30;;
71771;SDS011;59606;52.138;5.424;2023-09-08T02:01:05;15.53;;;8.17;;
71771;SDS011;59606;52.138;5.424;2023-09-08T02:03:32;12.80;;;8.00;;
71771;SDS011;59606;52.138;5.424;2023-09-08T02:05:59;12.70;;;8.02;;
71771;SDS011;59606;52.138;5.424;2023-09-08T02:08:26;14.57;;;8.00;;
71771;SDS011;59606;52.138;5.424;2023-09-08T02:10:53;12.60;;;8.68;;
71771;SDS011;59606;52.138;5.424;2023-09-08T02:13:19;12.30;;;8.17;;
71771;SDS011;59606;52.138;5.424;2023-09-08T02:15:46;12.40;;;8.10;;
71771;SDS011;59606;52.138;5.424;2023-09-08T02:18:12;13.38;;;7.13;;
71771;SDS011;59606;52.138;5.424;2023-09-08T02:20:39;13.85;;;9.45;;
71771;SDS011;59606;52.138;5.424;2023-09-08T02:23:07;11.25;;;7.85;;
71771;SDS011;59606;52.138;5.424;2023-09-08T02:25:33;15.30;;;8.70;;
71771;SDS011;59606;52.138;5.424;2023-09-08T02:28:00;12.05;;;7.68;;
71771;SDS011;59606;52.138;5.424;2023-09-08T02:30:27;12.00;;;8.07;;
71771;SDS011;59606;52.138;5.424;2023-09-08T02:32:53;12.15;;;8.02;;
71771;SDS011;59606;52.138;5.424;2023-09-08T02:35:25;12.68;;;8.32;;
71771;SDS011;59606;52.138;5.424;2023-09-08T02:37:51;15.13;;;8.57;;
71771;SDS011;59606;52.138;5.424;2023-09-08T02:40:18;13.93;;;8.45;;
71771;SDS011;59606;52.138;5.424;2023-09-08T02:42:46;13.77;;;7.93;;
71771;SDS011;59606;52.138;5.424;2023-09-08T02:45:14;11.32;;;7.63;;
71771;SDS011;59606;52.138;5.424;2023-09-08T02:47:40;15.50;;;8.20;;
71771;SDS011;59606;52.138;5.424;2023-09-08T02:50:07;13.47;;;8.70;;
71771;SDS011;59606;52.138;5.424;2023-09-08T02:52:34;16.38;;;8.52;;
71771;SDS011;59606;52.138;5.424;2023-09-08T02:55:01;12.30;;;7.85;;
71771;SDS011;59606;52.138;5.424;2023-09-08T02:57:27;12.93;;;8.10;;
71771;SDS011;59606;52.138;5.424;2023-09-08T02:59:54;13.10;;;8.20;;
71771;SDS011;59606;52.138;5.424;2023-09-08T03:02:24;11.77;;;7.50;;
71771;SDS011;59606;52.138;5.424;2023-09-08T03:04:52;11.80;;;8.13;;
71771;SDS011;59606;52.138;5.424;2023-09-08T03:07:18;13.02;;;8.02;;
71771;SDS011;59606;52.138;5.424;2023-09-08T03:09:45;12.85;;;8.10;;
71771;SDS011;59606;52.138;5.424;2023-09-08T03:12:11;11.02;;;7.25;;
71771;SDS011;59606;52.138;5.424;2023-09-08T03:14:38;12.73;;;7.73;;
71771;SDS011;59606;52.138;5.424;2023-09-08T03:17:04;14.82;;;8.70;;
71771;SDS011;59606;52.138;5.424;2023-09-08T03:19:31;12.57;;;7.97;;
71771;SDS011;59606;52.138;5.424;2023-09-08T03:21:58;11.48;;;8.10;;
71771;SDS011;59606;52.138;5.424;2023-09-08T03:24:24;13.75;;;8.30;;
71771;SDS011;59606;52.138;5.424;2023-09-08T03:26:51;14.47;;;8.57;;
71771;SDS011;59606;52.138;5.424;2023-09-08T03:29:17;13.95;;;9.05;;
71771;SDS011;59606;52.138;5.424;2023-09-08T03:31:45;22.00;;;8.80;;
71771;SDS011;59606;52.138;5.424;2023-09-08T03:34:11;15.27;;;8.63;;
71771;SDS011;59606;52.138;5.424;2023-09-08T03:36:41;13.52;;;8.75;;
71771;SDS011;59606;52.138;5.424;2023-09-08T03:39:08;15.70;;;10.07;;
71771;SDS011;59606;52.138;5.424;2023-09-08T03:41:35;17.48;;;9.25;;
71771;SDS011;59606;52.138;5.424;2023-09-08T03:44:02;15.75;;;9.48;;
71771;SDS011;59606;52.138;5.424;2023-09-08T03:46:28;16.67;;;9.48;;
71771;SDS011;59606;52.138;5.424;2023-09-08T03:48:55;14.45;;;9.73;;
71771;SDS011;59606;52.138;5.424;2023-09-08T03:51:27;18.13;;;9.50;;
71771;SDS011;59606;52.138;5.424;2023-09-08T03:53:54;17.88;;;9.85;;
71771;SDS011;59606;52.138;5.424;2023-09-08T03:56:21;14.88;;;9.75;;
71771;SDS011;59606;52.138;5.424;2023-09-08T03:58:47;16.45;;;10.18;;
71771;SDS011;59606;52.138;5.424;2023-09-08T04:01:14;18.73;;;10.68;;
71771;SDS011;59606;52.138;5.424;2023-09-08T04:03:41;16.13;;;9.63;;
71771;SDS011;59606;52.138;5.424;2023-09-08T04:06:08;17.83;;;10.45;;
71771;SDS011;59606;52.138;5.424;2023-09-08T04:08:35;20.23;;;10.30;;
71771;SDS011;59606;52.138;5.424;2023-09-08T04:11:01;15.52;;;10.98;;
71771;SDS011;59606;52.138;5.424;2023-09-08T04:13:28;18.60;;;10.57;;
71771;SDS011;59606;52.138;5.424;2023-09-08T04:15:55;17.63;;;10.17;;
71771;SDS011;59606;52.138;5.424;2023-09-08T04:18:21;18.55;;;10.05;;
71771;SDS011;59606;52.138;5.424;2023-09-08T04:20:48;17.25;;;10.80;;
71771;SDS011;59606;52.138;5.424;2023-09-08T04:23:15;18.60;;;10.27;;
71771;SDS011;59606;52.138;5.424;2023-09-08T04:25:41;17.40;;;10.68;;
71771;SDS011;59606;52.138;5.424;2023-09-08T04:28:08;21.23;;;10.97;;
71771;SDS011;59606;52.138;5.424;2023-09-08T04:30:34;16.63;;;10.18;;
71771;SDS011;59606;52.138;5.424;2023-09-08T04:33:01;17.23;;;10.45;;
71771;SDS011;59606;52.138;5.424;2023-09-08T04:35:28;17.20;;;10.55;;
71771;SDS011;59606;52.138;5.424;2023-09-08T04:37:55;18.23;;;10.88;;
71771;SDS011;59606;52.138;5.424;2023-09-08T04:40:22;18.23;;;11.03;;
71771;SDS011;59606;52.138;5.424;2023-09-08T04:42:48;19.80;;;11.52;;
71771;SDS011;59606;52.138;5.424;2023-09-08T04:45:15;16.95;;;10.75;;
71771;SDS011;59606;52.138;5.424;2023-09-08T04:47:41;19.02;;;11.77;;
71771;SDS011;59606;52.138;5.424;2023-09-08T04:50:08;18.00;;;10.25;;
71771;SDS011;59606;52.138;5.424;2023-09-08T04:52:35;19.07;;;10.27;;
71771;SDS011;59606;52.138;5.424;2023-09-08T04:55:02;16.77;;;9.93;;
71771;SDS011;59606;52.138;5.424;2023-09-08T04:57:28;18.38;;;10.88;;
71771;SDS011;59606;52.138;5.424;2023-09-08T04:59:56;16.98;;;10.95;;
71771;SDS011;59606;52.138;5.424;2023-09-08T05:02:23;16.80;;;10.70;;
71771;SDS011;59606;52.138;5.424;2023-09-08T05:04:50;18.33;;;11.57;;
71771;SDS011;59606;52.138;5.424;2023-09-08T05:07:18;19.90;;;11.02;;
71771;SDS011;59606;52.138;5.424;2023-09-08T05:09:46;20.27;;;11.38;;
71771;SDS011;59606;52.138;5.424;2023-09-08T05:12:13;19.70;;;11.70;;
71771;SDS011;59606;52.138;5.424;2023-09-08T05:14:40;18.52;;;11.60;;
71771;SDS011;59606;52.138;5.424;2023-09-08T05:17:07;17.07;;;10.87;;
71771;SDS011;59606;52.138;5.424;2023-09-08T05:19:34;24.30;;;11.75;;
71771;SDS011;59606;52.138;5.424;2023-09-08T05:22:00;17.50;;;11.73;;
71771;SDS011;59606;52.138;5.424;2023-09-08T05:24:27;19.48;;;12.07;;
71771;SDS011;59606;52.138;5.424;2023-09-08T05:26:54;21.40;;;12.23;;
71771;SDS011;59606;52.138;5.424;2023-09-08T05:29:20;22.40;;;12.30;;
71771;SDS011;59606;52.138;5.424;2023-09-08T05:31:47;20.92;;;11.80;;
71771;SDS011;59606;52.138;5.424;2023-09-08T05:34:13;22.90;;;11.63;;
71771;SDS011;59606;52.138;5.424;2023-09-08T05:36:40;26.17;;;12.80;;
71771;SDS011;59606;52.138;5.424;2023-09-08T05:39:08;21.17;;;11.23;;
71771;SDS011;59606;52.138;5.424;2023-09-08T05:41:36;27.50;;;13.43;;
71771;SDS011;59606;52.138;5.424;2023-09-08T05:44:03;24.60;;;12.18;;
71771;SDS011;59606;52.138;5.424;2023-09-08T05:46:29;32.17;;;13.05;;
71771;SDS011;59606;52.138;5.424;2023-09-08T05:48:56;24.38;;;12.25;;
71771;SDS011;59606;52.138;5.424;2023-09-08T05:51:23;23.40;;;12.65;;
71771;SDS011;59606;52.138;5.424;2023-09-08T05:53:49;19.30;;;11.87;;
71771;SDS011;59606;52.138;5.424;2023-09-08T05:56:18;22.40;;;13.00;;
71771;SDS011;59606;52.138;5.424;2023-09-08T05:58:45;19.80;;;11.32;;
71771;SDS011;59606;52.138;5.424;2023-09-08T06:01:12;26.60;;;12.30;;
71771;SDS011;59606;52.138;5.424;2023-09-08T06:03:39;20.95;;;12.32;;
71771;SDS011;59606;52.138;5.424;2023-09-08T06:06:06;19.80;;;11.80;;
71771;SDS011;59606;52.138;5.424;2023-09-08T06:08:32;19.08;;;11.35;;
71771;SDS011;59606;52.138;5.424;2023-09-08T06:10:59;18.63;;;11.35;;
71771;SDS011;59606;52.138;5.424;2023-09-08T06:13:26;20.20;;;12.35;;
71771;SDS011;59606;52.138;5.424;2023-09-08T06:15:53;18.63;;;12.52;;
71771;SDS011;59606;52.138;5.424;2023-09-08T06:18:19;18.97;;;11.70;;
71771;SDS011;59606;52.138;5.424;2023-09-08T06:20:46;21.05;;;13.02;;
71771;SDS011;59606;52.138;5.424;2023-09-08T06:23:13;18.80;;;11.43;;
71771;SDS011;59606;52.138;5.424;2023-09-08T06:25:40;20.88;;;11.90;;
71771;SDS011;59606;52.138;5.424;2023-09-08T06:28:07;22.25;;;13.40;;
71771;SDS011;59606;52.138;5.424;2023-09-08T06:30:34;18.50;;;11.00;;
71771;SDS011;59606;52.138;5.424;2023-09-08T06:33:00;24.35;;;11.75;;
71771;SDS011;59606;52.138;5.424;2023-09-08T06:35:27;19.02;;;11.82;;
71771;SDS011;59606;52.138;5.424;2023-09-08T06:37:54;18.70;;;11.60;;
71771;SDS011;59606;52.138;5.424;2023-09-08T06:40:21;18.20;;;11.30;;
71771;SDS011;59606;52.138;5.424;2023-09-08T06:42:47;22.23;;;12.93;;
71771;SDS011;59606;52.138;5.424;2023-09-08T06:45:14;21.23;;;11.70;;
71771;SDS011;59606;52.138;5.424;2023-09-08T06:47:41;20.40;;;12.05;;
71771;SDS011;59606;52.138;5.424;2023-09-08T06:50:08;17.73;;;11.18;;
71771;SDS011;59606;52.138;5.424;2023-09-08T06:52:35;23.50;;;11.43;;
71771;SDS011;59606;52.138;5.424;2023-09-08T06:55:02;19.07;;;11.43;;
71771;SDS011;59606;52.138;5.424;2023-09-08T06:57:29;20.65;;;11.38;;
71771;SDS011;59606;52.138;5.424;2023-09-08T06:59:55;21.23;;;12.20;;
71771;SDS011;59606;52.138;5.424;2023-09-08T07:02:22;22.58;;;13.23;;
71771;SDS011;59606;52.138;5.424;2023-09-08T07:04:48;37.58;;;14.70;;
71771;SDS011;59606;52.138;5.424;2023-09-08T07:07:15;32.67;;;14.87;;
71771;SDS011;59606;52.138;5.424;2023-09-08T07:09:43;23.75;;;11.60;;
71771;SDS011;59606;52.138;5.424;2023-09-08T07:12:10;18.83;;;11.75;;
71771;SDS011;59606;52.138;5.424;2023-09-08T07:14:37;20.63;;;12.10;;
71771;SDS011;59606;52.138;5.424;2023-09-08T07:17:04;19.45;;;12.30;;
71771;SDS011;59606;52.138;5.424;2023-09-08T07:19:31;23.00;;;11.77;;
71771;SDS011;59606;52.138;5.424;2023-09-08T07:21:57;18.75;;;10.32;;
71771;SDS011;59606;52.138;5.424;2023-09-08T07:24:24;17.20;;;10.20;;
71771;SDS011;59606;52.138;5.424;2023-09-08T07:26:50;19.25;;;11.65;;
71771;SDS011;59606;52.138;5.424;2023-09-08T07:29:17;17.00;;;10.70;;
71771;SDS011;59606;52.138;5.424;2023-09-08T07:31:44;19.20;;;10.67;;
71771;SDS011;59606;52.138;5.424;2023-09-08T07:34:10;16.58;;;10.27;;
71771;SDS011;59606;52.138;5.424;2023-09-08T07:36:37;18.85;;;10.23;;
71771;SDS011;59606;52.138;5.424;2023-09-08T07:39:03;15.35;;;9.77;;
71771;SDS011;59606;52.138;5.424;2023-09-08T07:41:30;17.67;;;11.35;;
71771;SDS011;59606;52.138;5.424;2023-09-08T07:43:56;17.43;;;10.13;;
71771;SDS011;59606;52.138;5.424;2023-09-08T07:46:23;15.52;;;9.57;;
71771;SDS011;59606;52.138;5.424;2023-09-08T07:48:50;17.10;;;10.35;;
71771;SDS011;59606;52.138;5.424;2023-09-08T07:51:17;15.13;;;10.15;;
71771;SDS011;59606;52.138;5.424;2023-09-08T07:53:43;17.85;;;9.95;;
71771;SDS011;59606;52.138;5.424;2023-09-08T07:56:10;20.83;;;10.37;;
71771;SDS011;59606;52.138;5.424;2023-09-08T07:58:37;17.90;;;9.45;;
71771;SDS011;59606;52.138;5.424;2023-09-08T08:01:05;14.70;;;9.85;;
71771;SDS011;59606;52.138;5.424;2023-09-08T08:03:32;15.63;;;10.05;;
71771;SDS011;59606;52.138;5.424;2023-09-08T08:06:01;14.63;;;9.70;;
71771;SDS011;59606;52.138;5.424;2023-09-08T08:08:27;19.50;;;9.67;;
71771;SDS011;59606;52.138;5.424;2023-09-08T08:10:54;16.75;;;10.38;;
71771;SDS011;59606;52.138;5.424;2023-09-08T08:13:21;17.17;;;9.68;;
71771;SDS011;59606;52.138;5.424;2023-09-08T08:15:48;15.73;;;9.85;;
71771;SDS011;59606;52.138;5.424;2023-09-08T08:18:15;15.48;;;9.82;;
71771;SDS011;59606;52.138;5.424;2023-09-08T08:20:43;18.45;;;9.85;;
71771;SDS011;59606;52.138;5.424;2023-09-08T08:23:09;15.70;;;9.20;;
71771;SDS011;59606;52.138;5.424;2023-09-08T08:25:36;19.30;;;9.80;;
71771;SDS011;59606;52.138;5.424;2023-09-08T08:28:02;17.23;;;10.30;;
71771;SDS011;59606;52.138;5.424;2023-09-08T08:30:29;17.48;;;9.38;;
71771;SDS011;59606;52.138;5.424;2023-09-08T08:32:56;17.27;;;9.43;;
71771;SDS011;59606;52.138;5.424;2023-09-08T08:35:23;14.65;;;9.55;;
71771;SDS011;59606;52.138;5.424;2023-09-08T08:37:50;15.23;;;9.93;;
71771;SDS011;59606;52.138;5.424;2023-09-08T08:40:16;14.60;;;9.23;;
71771;SDS011;59606;52.138;5.424;2023-09-08T08:42:43;13.85;;;8.82;;
71771;SDS011;59606;52.138;5.424;2023-09-08T08:45:10;13.27;;;9.30;;
71771;SDS011;59606;52.138;5.424;2023-09-08T08:47:38;13.30;;;8.95;;
71771;SDS011;59606;52.138;5.424;2023-09-08T08:50:05;12.18;;;8.77;;
71771;SDS011;59606;52.138;5.424;2023-09-08T08:52:36;14.02;;;9.63;;
71771;SDS011;59606;52.138;5.424;2023-09-08T08:55:04;14.80;;;9.75;;
71771;SDS011;59606;52.138;5.424;2023-09-08T08:57:31;22.58;;;9.63;;
71771;SDS011;59606;52.138;5.424;2023-09-08T08:59:58;17.30;;;9.10;;
71771;SDS011;59606;52.138;5.424;2023-09-08T09:02:26;16.80;;;8.90;;
71771;SDS011;59606;52.138;5.424;2023-09-08T09:04:54;12.60;;;8.55;;
71771;SDS011;59606;52.138;5.424;2023-09-08T09:07:21;13.32;;;8.07;;
71771;SDS011;59606;52.138;5.424;2023-09-08T09:09:49;11.00;;;7.78;;
71771;SDS011;59606;52.138;5.424;2023-09-08T09:12:18;12.57;;;8.25;;
71771;SDS011;59606;52.138;5.424;2023-09-08T09:14:45;15.23;;;8.13;;
71771;SDS011;59606;52.138;5.424;2023-09-08T09:17:14;12.30;;;8.05;;
71771;SDS011;59606;52.138;5.424;2023-09-08T09:19:41;12.07;;;8.00;;
71771;SDS011;59606;52.138;5.424;2023-09-08T09:22:07;12.07;;;7.85;;
71771;SDS011;59606;52.138;5.424;2023-09-08T09:24:35;14.80;;;8.25;;
71771;SDS011;59606;52.138;5.424;2023-09-08T09:27:08;12.32;;;8.27;;
71771;SDS011;59606;52.138;5.424;2023-09-08T09:29:48;13.48;;;8.38;;
71771;SDS011;59606;52.138;5.424;2023-09-08T09:32:16;14.87;;;8.17;;
71771;SDS011;59606;52.138;5.424;2023-09-08T09:34:49;16.77;;;8.23;;
71771;SDS011;59606;52.138;5.424;2023-09-08T09:37:20;13.55;;;8.82;;
71771;SDS011;59606;52.138;5.424;2023-09-08T09:39:53;11.23;;;7.95;;
71771;SDS011;59606;52.138;5.424;2023-09-08T09:42:21;12.77;;;8.88;;
71771;SDS011;59606;52.138;5.424;2023-09-08T09:44:48;11.57;;;8.13;;
71771;SDS011;59606;52.138;5.424;2023-09-08T09:47:15;12.10;;;7.57;;
71771;SDS011;59606;52.138;5.424;2023-09-08T09:49:43;10.93;;;7.80;;
71771;SDS011;59606;52.138;5.424;2023-09-08T09:52:11;13.02;;;7.88;;
71771;SDS011;59606;52.138;5.424;2023-09-08T09:54:42;11.00;;;7.38;;
71771;SDS011;59606;52.138;5.424;2023-09-08T09:57:13;11.13;;;7.73;;
71771;SDS011;59606;52.138;5.424;2023-09-08T09:59:40;10.38;;;7.72;;
71771;SDS011;59606;52.138;5.424;2023-09-08T10:02:17;10.10;;;7.43;;
71771;SDS011;59606;52.138;5.424;2023-09-08T10:04:48;12.35;;;7.40;;
71771;SDS011;59606;52.138;5.424;2023-09-08T10:07:16;10.18;;;7.25;;
71771;SDS011;59606;52.138;5.424;2023-09-08T10:09:44;13.30;;;8.07;;
71771;SDS011;59606;52.138;5.424;2023-09-08T10:12:12;10.10;;;7.28;;
71771;SDS011;59606;52.138;5.424;2023-09-08T10:14:42;11.02;;;7.13;;
71771;SDS011;59606;52.138;5.424;2023-09-08T10:17:12;10.88;;;7.88;;
71771;SDS011;59606;52.138;5.424;2023-09-08T10:19:44;12.20;;;7.45;;
71771;SDS011;59606;52.138;5.424;2023-09-08T10:22:19;12.80;;;8.73;;
71771;SDS011;59606;52.138;5.424;2023-09-08T10:24:50;10.68;;;7.70;;
71771;SDS011;59606;52.138;5.424;2023-09-08T10:27:20;9.75;;;7.85;;
71771;SDS011;59606;52.138;5.424;2023-09-08T10:29:52;14.73;;;6.75;;
71771;SDS011;59606;52.138;5.424;2023-09-08T10:32:20;13.23;;;7.43;;
71771;SDS011;59606;52.138;5.424;2023-09-08T10:34:48;12.60;;;7.60;;
71771;SDS011;59606;52.138;5.424;2023-09-08T10:37:22;10.20;;;6.70;;
71771;SDS011;59606;52.138;5.424;2023-09-08T10:39:55;9.27;;;6.45;;
71771;SDS011;59606;52.138;5.424;2023-09-08T10:42:23;11.02;;;7.20;;
71771;SDS011;59606;52.138;5.424;2023-09-08T10:44:56;11.20;;;7.13;;
71771;SDS011;59606;52.138;5.424;2023-09-08T10:47:39;15.20;;;8.17;;
71771;SDS011;59606;52.138;5.424;2023-09-08T10:50:26;11.25;;;7.72;;
71771;SDS011;59606;52.138;5.424;2023-09-08T10:53:06;12.57;;;8.20;;
71771;SDS011;59606;52.138;5.424;2023-09-08T10:55:46;12.45;;;8.23;;
71771;SDS011;59606;52.138;5.424;2023-09-08T10:58:32;13.43;;;7.55;;
71771;SDS011;59606;52.138;5.424;2023-09-08T11:01:03;10.80;;;7.10;;
71771;SDS011;59606;52.138;5.424;2023-09-08T11:06:05;9.32;;;6.90;;
71771;SDS011;59606;52.138;5.424;2023-09-08T11:08:32;8.98;;;7.05;;
71771;SDS011;59606;52.138;5.424;2023-09-08T11:11:00;9.15;;;6.35;;
71771;SDS011;59606;52.138;5.424;2023-09-08T11:13:28;9.47;;;6.97;;
71771;SDS011;59606;52.138;5.424;2023-09-08T11:15:55;11.23;;;6.97;;
71771;SDS011;59606;52.138;5.424;2023-09-08T11:18:31;9.98;;;6.57;;
71771;SDS011;59606;52.138;5.424;2023-09-08T11:21:01;10.25;;;6.97;;
71771;SDS011;59606;52.138;5.424;2023-09-08T11:23:29;11.75;;;7.13;;
71771;SDS011;59606;52.138;5.424;2023-09-08T11:25:58;10.77;;;6.40;;
71771;SDS011;59606;52.138;5.424;2023-09-08T11:28:26;10.30;;;6.63;;
71771;SDS011;59606;52.138;5.424;2023-09-08T11:30:54;12.65;;;7.50;;
71771;SDS011;59606;52.138;5.424;2023-09-08T11:33:22;10.32;;;6.95;;
71771;SDS011;59606;52.138;5.424;2023-09-08T11:35:53;13.10;;;7.25;;
71771;SDS011;59606;52.138;5.424;2023-09-08T11:38:25;7.77;;;6.13;;
71771;SDS011;59606;52.138;5.424;2023-09-08T11:40:56;16.45;;;6.75;;
71771;SDS011;59606;52.138;5.424;2023-09-08T11:43:27;9.63;;;5.93;;
71771;SDS011;59606;52.138;5.424;2023-09-08T11:45:55;10.43;;;6.93;;
71771;SDS011;59606;52.138;5.424;2023-09-08T11:48:23;8.38;;;6.50;;
71771;SDS011;59606;52.138;5.424;2023-09-08T11:50:54;9.93;;;6.60;;
71771;SDS011;59606;52.138;5.424;2023-09-08T11:53:21;16.40;;;7.38;;
71771;SDS011;59606;52.138;5.424;2023-09-08T11:55:48;10.35;;;7.30;;
71771;SDS011;59606;52.138;5.424;2023-09-08T11:58:16;13.50;;;6.80;;
71771;SDS011;59606;52.138;5.424;2023-09-08T12:00:44;10.10;;;5.50;;
71771;SDS011;59606;52.138;5.424;2023-09-08T12:03:12;11.73;;;5.97;;
71771;SDS011;59606;52.138;5.424;2023-09-08T12:05:41;9.20;;;5.75;;
71771;SDS011;59606;52.138;5.424;2023-09-08T12:08:10;11.02;;;6.68;;
71771;SDS011;59606;52.138;5.424;2023-09-08T12:10:40;14.55;;;6.47;;
71771;SDS011;59606;52.138;5.424;2023-09-08T12:13:08;9.90;;;6.05;;
71771;SDS011;59606;52.138;5.424;2023-09-08T12:15:39;11.70;;;5.60;;
71771;SDS011;59606;52.138;5.424;2023-09-08T12:18:10;9.20;;;5.88;;
71771;SDS011;59606;52.138;5.424;2023-09-08T12:20:39;7.85;;;5.90;;
71771;SDS011;59606;52.138;5.424;2023-09-08T12:23:16;8.82;;;5.25;;
71771;SDS011;59606;52.138;5.424;2023-09-08T12:25:44;6.90;;;5.20;;
71771;SDS011;59606;52.138;5.424;2023-09-08T12:28:12;8.67;;;5.30;;
71771;SDS011;59606;52.138;5.424;2023-09-08T12:30:38;9.02;;;5.60;;
71771;SDS011;59606;52.138;5.424;2023-09-08T12:33:05;7.38;;;4.90;;
71771;SDS011;59606;52.138;5.424;2023-09-08T12:35:33;7.75;;;5.50;;
71771;SDS011;59606;52.138;5.424;2023-09-08T12:38:03;6.97;;;5.20;;
71771;SDS011;59606;52.138;5.424;2023-09-08T12:40:35;8.27;;;5.17;;
71771;SDS011;59606;52.138;5.424;2023-09-08T12:43:03;9.90;;;5.75;;
71771;SDS011;59606;52.138;5.424;2023-09-08T12:45:52;7.25;;;5.18;;
71771;SDS011;59606;52.138;5.424;2023-09-08T12:48:18;15.93;;;7.57;;
71771;SDS011;59606;52.138;5.424;2023-09-08T12:50:45;8.20;;;5.38;;
71771;SDS011;59606;52.138;5.424;2023-09-08T12:53:12;10.43;;;5.30;;
71771;SDS011;59606;52.138;5.424;2023-09-08T12:55:42;8.32;;;5.35;;
71771;SDS011;59606;52.138;5.424;2023-09-08T12:58:09;8.23;;;5.13;;
71771;SDS011;59606;52.138;5.424;2023-09-08T13:00:35;10.50;;;5.80;;
71771;SDS011;59606;52.138;5.424;2023-09-08T13:03:02;10.77;;;6.30;;
71771;SDS011;59606;52.138;5.424;2023-09-08T13:05:29;8.30;;;6.10;;
71771;SDS011;59606;52.138;5.424;2023-09-08T13:07:57;7.82;;;5.78;;
71771;SDS011;59606;52.138;5.424;2023-09-08T13:10:23;9.18;;;6.28;;
71771;SDS011;59606;52.138;5.424;2023-09-08T13:12:50;7.97;;;5.32;;
71771;SDS011;59606;52.138;5.424;2023-09-08T13:15:16;7.82;;;5.95;;
71771;SDS011;59606;52.138;5.424;2023-09-08T13:17:43;11.30;;;6.67;;
71771;SDS011;59606;52.138;5.424;2023-09-08T13:20:10;9.25;;;5.53;;
71771;SDS011;59606;52.138;5.424;2023-09-08T13:22:37;10.20;;;5.50;;
71771;SDS011;59606;52.138;5.424;2023-09-08T13:25:04;7.40;;;5.00;;
71771;SDS011;59606;52.138;5.424;2023-09-08T13:27:31;10.57;;;5.50;;
71771;SDS011;59606;52.138;5.424;2023-09-08T13:30:07;8.07;;;5.30;;
71771;SDS011;59606;52.138;5.424;2023-09-08T13:32:35;8.95;;;5.40;;
71771;SDS011;59606;52.138;5.424;2023-09-08T13:35:02;8.82;;;5.70;;
71771;SDS011;59606;52.138;5.424;2023-09-08T13:37:29;8.00;;;4.53;;
71771;SDS011;59606;52.138;5.424;2023-09-08T13:39:57;10.75;;;5.65;;
71771;SDS011;59606;52.138;5.424;2023-09-08T13:42:23;16.53;;;6.30;;
71771;SDS011;59606;52.138;5.424;2023-09-08T13:44:50;9.98;;;5.93;;
71771;SDS011;59606;52.138;5.424;2023-09-08T13:47:17;10.32;;;5.70;;
71771;SDS011;59606;52.138;5.424;2023-09-08T13:49:44;10.52;;;6.05;;
71771;SDS011;59606;52.138;5.424;2023-09-08T13:52:12;9.82;;;5.10;;
71771;SDS011;59606;52.138;5.424;2023-09-08T13:54:44;8.83;;;6.13;;
71771;SDS011;59606;52.138;5.424;2023-09-08T13:57:11;8.55;;;5.35;;
71771;SDS011;59606;52.138;5.424;2023-09-08T13:59:39;12.50;;;6.68;;
71771;SDS011;59606;52.138;5.424;2023-09-08T14:02:08;9.25;;;5.47;;
71771;SDS011;59606;52.138;5.424;2023-09-08T14:04:55;9.90;;;5.10;;
71771;SDS011;59606;52.138;5.424;2023-09-08T14:07:28;6.60;;;4.73;;
71771;SDS011;59606;52.138;5.424;2023-09-08T14:10:03;8.15;;;4.70;;
71771;SDS011;59606;52.138;5.424;2023-09-08T14:12:53;7.18;;;4.55;;
71771;SDS011;59606;52.138;5.424;2023-09-08T14:15:20;9.45;;;4.90;;
71771;SDS011;59606;52.138;5.424;2023-09-08T14:17:46;9.02;;;5.40;;
71771;SDS011;59606;52.138;5.424;2023-09-08T14:20:13;8.93;;;5.83;;
71771;SDS011;59606;52.138;5.424;2023-09-08T14:22:40;8.82;;;5.82;;
71771;SDS011;59606;52.138;5.424;2023-09-08T14:25:06;8.55;;;5.28;;
71771;SDS011;59606;52.138;5.424;2023-09-08T14:27:33;10.52;;;4.70;;
71771;SDS011;59606;52.138;5.424;2023-09-08T14:30:01;11.15;;;5.10;;
71771;SDS011;59606;52.138;5.424;2023-09-08T14:32:28;7.80;;;4.93;;
71771;SDS011;59606;52.138;5.424;2023-09-08T14:34:55;11.40;;;4.82;;
71771;SDS011;59606;52.138;5.424;2023-09-08T14:37:22;8.38;;;4.97;;
71771;SDS011;59606;52.138;5.424;2023-09-08T14:39:49;7.45;;;4.72;;
71771;SDS011;59606;52.138;5.424;2023-09-08T14:42:16;11.07;;;4.78;;
71771;SDS011;59606;52.138;5.424;2023-09-08T14:44:42;8.93;;;4.97;;
71771;SDS011;59606;52.138;5.424;2023-09-08T14:47:09;6.68;;;5.00;;